createdAt,value
2022-11-23T00:01:16.238Z,69.68
2022-11-23T00:03:47.277Z,66.13
2022-11-23T00:06:16.090Z,65.40
2022-11-23T00:08:44.431Z,47.22
2022-11-23T00:11:12.805Z,63.72
2022-11-23T00:13:41.583Z,61.15
2022-11-23T00:16:12.699Z,56.55
2022-11-23T00:18:40.657Z,63.20
2022-11-23T00:21:11.640Z,58.40
2022-11-23T00:23:39.760Z,53.58
2022-11-23T00:26:08.467Z,50.95
2022-11-23T00:28:38.751Z,47.85
2022-11-23T00:31:07.358Z,50.92
2022-11-23T00:33:35.886Z,52.08
2022-11-23T00:36:06.549Z,48.72
2022-11-23T00:38:36.271Z,55.17
2022-11-23T00:41:06.173Z,51.50
2022-11-23T00:43:34.442Z,51.33
2022-11-23T00:46:07.296Z,51.55
2022-11-23T00:48:35.601Z,54.03
2022-11-23T00:51:04.994Z,58.58
2022-11-23T00:53:33.092Z,54.28
2022-11-23T00:56:02.556Z,61.95
2022-11-23T00:58:30.582Z,59.65
2022-11-23T01:01:03.638Z,62.63
2022-11-23T01:03:31.840Z,57.75
2022-11-23T01:06:04.735Z,55.97
2022-11-23T01:08:32.883Z,53.88
2022-11-23T01:11:03.887Z,59.13
2022-11-23T01:13:32.392Z,56.63
2022-11-23T01:16:01.515Z,62.85
2022-11-23T01:18:29.665Z,66.28
2022-11-23T01:20:57.766Z,51.20
2022-11-23T01:23:25.763Z,54.67
2022-11-23T01:25:57.015Z,52.78
2022-11-23T01:28:26.662Z,50.47
2022-11-23T01:30:54.660Z,50.72
2022-11-23T01:33:22.688Z,52.05
2022-11-23T01:35:50.672Z,61.38
2022-11-23T01:38:18.688Z,61.88
2022-11-23T01:40:46.688Z,62.67
2022-11-23T01:43:17.351Z,54.75
2022-11-23T01:45:58.084Z,50.17
2022-11-23T01:48:29.567Z,54.75
2022-11-23T01:51:00.169Z,60.40
2022-11-23T01:53:29.191Z,53.95
2022-11-23T01:56:01.434Z,46.10
2022-11-23T01:58:32.885Z,55.97
2022-11-23T02:01:02.566Z,48.08
2022-11-23T02:03:31.723Z,45.17
2022-11-23T02:06:03.926Z,44.97
2022-11-23T02:08:33.092Z,43.75
2022-11-23T02:11:01.952Z,48.25
2022-11-23T02:13:30.552Z,44.83
2022-11-23T02:16:00.197Z,40.60
2022-11-23T02:18:32.718Z,38.33
2022-11-23T02:21:03.137Z,41.58
2022-11-23T02:23:37.574Z,35.55
2022-11-23T02:26:10.829Z,36.85
2022-11-23T02:28:44.313Z,32.83
2022-11-23T02:31:12.447Z,36.70
2022-11-23T02:33:40.835Z,38.17
2022-11-23T02:36:35.424Z,33.05
2022-11-23T02:39:08.212Z,30.33
2022-11-23T02:41:39.241Z,34.05
2022-11-23T02:44:10.926Z,31.65
2022-11-23T02:46:39.179Z,30.48
2022-11-23T02:49:07.226Z,30.45
2022-11-23T02:51:35.224Z,30.88
2022-11-23T02:54:03.315Z,32.28
2022-11-23T02:56:31.338Z,29.33
2022-11-23T02:59:00.710Z,32.55
2022-11-23T03:01:29.975Z,33.85
2022-11-23T03:03:57.999Z,30.33
2022-11-23T03:06:26.036Z,32.53
2022-11-23T03:08:54.043Z,32.45
2022-11-23T03:11:22.032Z,30.88
2022-11-23T03:13:50.115Z,28.52
2022-11-23T03:16:19.468Z,30.92
2022-11-23T03:18:47.567Z,26.67
2022-11-23T03:21:15.803Z,30.63
2022-11-23T03:23:43.975Z,30.40
2022-11-23T03:26:13.328Z,29.67
2022-11-23T03:28:41.520Z,27.92
2022-11-23T03:31:09.510Z,32.13
2022-11-23T03:33:38.860Z,30.65
2022-11-23T03:36:07.511Z,30.33
2022-11-23T03:38:35.518Z,30.60
2022-11-23T03:41:03.499Z,29.67
2022-11-23T03:43:31.515Z,29.00
2022-11-23T03:45:59.535Z,33.03
2022-11-23T03:48:27.544Z,30.65
2022-11-23T03:50:56.875Z,27.15
2022-11-23T03:53:24.898Z,28.33
2022-11-23T03:55:55.338Z,29.73
2022-11-23T03:58:23.344Z,29.13
2022-11-23T04:00:51.413Z,28.35
2022-11-23T04:03:19.547Z,31.20
2022-11-23T04:05:47.539Z,32.38
2022-11-23T04:08:16.897Z,34.35
2022-11-23T04:10:44.879Z,29.38
2022-11-23T04:13:12.882Z,32.35
2022-11-23T04:15:40.860Z,27.27
2022-11-23T04:18:08.866Z,30.27
2022-11-23T04:20:36.882Z,32.47
2022-11-23T04:23:07.131Z,31.13
2022-11-23T04:25:39.777Z,31.88
2022-11-23T04:28:07.783Z,30.58
2022-11-23T04:30:35.770Z,32.60
2022-11-23T04:33:03.840Z,29.52
2022-11-23T04:35:31.824Z,31.25
2022-11-23T04:37:59.793Z,30.98
2022-11-23T04:40:27.946Z,31.20
2022-11-23T04:43:00.513Z,30.27
2022-11-23T04:45:29.980Z,34.13
2022-11-23T04:47:57.957Z,32.67
2022-11-23T04:50:26.027Z,30.30
2022-11-23T04:52:54.050Z,37.03
2022-11-23T04:55:22.216Z,30.88
2022-11-23T04:57:50.194Z,31.15
2022-11-23T05:00:20.018Z,32.80
2022-11-23T05:02:47.983Z,32.75
2022-11-23T05:05:16.030Z,34.05
2022-11-23T05:07:44.065Z,35.85
2022-11-23T05:10:12.326Z,37.00
2022-11-23T05:12:40.324Z,33.00
2022-11-23T05:15:09.185Z,34.65
2022-11-23T05:17:38.483Z,36.28
2022-11-23T05:20:07.583Z,32.45
2022-11-23T05:22:35.644Z,35.80
2022-11-23T05:25:03.603Z,35.90
2022-11-23T05:27:31.684Z,32.85
2022-11-23T05:29:59.717Z,36.25
2022-11-23T05:32:27.716Z,30.85
2022-11-23T05:34:57.057Z,30.83
2022-11-23T05:37:25.054Z,33.30
2022-11-23T05:39:53.244Z,33.50
2022-11-23T05:42:21.288Z,32.97
2022-11-23T05:44:49.296Z,33.60
2022-11-23T05:47:17.402Z,27.35
2022-11-23T05:49:45.421Z,33.63
2022-11-23T05:52:14.842Z,30.65
2022-11-23T05:54:42.854Z,32.42
2022-11-23T05:57:11.347Z,31.60
2022-11-23T05:59:39.380Z,31.90
2022-11-23T06:02:07.387Z,29.33
2022-11-23T06:04:35.434Z,29.35
2022-11-23T06:07:03.613Z,26.33
2022-11-23T06:09:33.184Z,29.95
2022-11-23T06:12:01.320Z,27.20
2022-11-23T06:14:29.324Z,32.55
2022-11-23T06:16:57.350Z,32.80
2022-11-23T06:19:25.375Z,31.95
2022-11-23T06:21:53.438Z,23.23
2022-11-23T06:24:21.430Z,27.90
2022-11-23T06:26:50.930Z,29.10
2022-11-23T06:29:18.911Z,31.35
2022-11-23T06:31:47.610Z,29.38
2022-11-23T06:34:15.852Z,28.58
2022-11-23T06:36:44.172Z,28.88
2022-11-23T06:39:13.191Z,28.58
2022-11-23T06:41:41.184Z,30.48
2022-11-23T06:44:10.668Z,27.23
2022-11-23T06:46:38.743Z,27.33
2022-11-23T06:49:06.830Z,26.20
2022-11-23T06:51:34.860Z,25.20
2022-11-23T06:54:02.870Z,27.73
2022-11-23T06:56:32.761Z,26.15
2022-11-23T06:59:00.920Z,27.95
2022-11-23T07:01:30.316Z,30.08
2022-11-23T07:03:58.457Z,31.73
2022-11-23T07:06:26.471Z,33.20
2022-11-23T07:08:55.712Z,33.83
2022-11-23T07:11:23.724Z,35.58
2022-11-23T07:13:51.727Z,31.27
2022-11-23T07:16:19.732Z,36.65
2022-11-23T07:18:49.156Z,31.35
2022-11-23T07:21:17.984Z,35.03
2022-11-23T07:23:45.976Z,38.70
2022-11-23T07:26:13.995Z,33.63
2022-11-23T07:28:41.984Z,36.13
2022-11-23T07:31:10.047Z,30.95
2022-11-23T07:33:38.045Z,30.05
2022-11-23T07:36:08.272Z,31.25
2022-11-23T07:38:36.224Z,28.63
2022-11-23T07:41:04.211Z,23.38
2022-11-23T07:43:32.217Z,22.92
2022-11-23T07:46:00.248Z,23.90
2022-11-23T07:48:33.177Z,19.95
2022-11-23T07:51:04.106Z,19.30
2022-11-23T07:53:33.479Z,19.13
2022-11-23T07:56:01.491Z,17.27
2022-11-23T07:58:29.570Z,21.58
2022-11-23T08:00:57.556Z,20.75
2022-11-23T08:03:28.442Z,18.45
2022-11-23T08:05:57.517Z,17.98
2022-11-23T08:08:25.848Z,19.90
2022-11-23T08:10:55.223Z,22.13
2022-11-23T08:13:23.610Z,25.33
2022-11-23T08:15:55.551Z,19.13
2022-11-23T08:18:24.503Z,17.40
2022-11-23T08:20:52.574Z,18.23
2022-11-23T08:23:20.913Z,23.00
2022-11-23T08:25:48.992Z,21.67
2022-11-23T08:28:18.496Z,19.90
2022-11-23T08:30:47.006Z,22.33
2022-11-23T08:33:15.313Z,32.20
2022-11-23T08:35:44.182Z,25.35
2022-11-23T08:38:12.708Z,26.45
2022-11-23T08:40:40.966Z,31.17
2022-11-23T08:43:09.016Z,24.20
2022-11-23T08:45:38.339Z,22.92
2022-11-23T08:48:07.221Z,15.70
2022-11-23T08:50:35.482Z,18.73
2022-11-23T08:53:03.574Z,18.90
2022-11-23T08:55:31.583Z,15.10
2022-11-23T08:58:00.316Z,14.05
2022-11-23T09:00:28.886Z,13.85
2022-11-23T09:02:59.013Z,14.37
2022-11-23T09:05:27.207Z,19.02
2022-11-23T09:07:55.384Z,17.17
2022-11-23T09:10:24.456Z,11.90
2022-11-23T09:12:52.855Z,13.82
2022-11-23T09:15:21.280Z,19.40
2022-11-23T09:17:49.372Z,17.00
2022-11-23T09:20:19.132Z,11.27
2022-11-23T09:22:52.496Z,9.57
2022-11-23T09:25:20.702Z,10.00
2022-11-23T09:27:49.306Z,9.75
2022-11-23T09:30:18.274Z,6.57
2022-11-23T09:32:46.394Z,10.15
2022-11-23T09:35:14.460Z,12.75
2022-11-23T09:37:43.992Z,8.55
2022-11-23T09:40:17.386Z,8.15
2022-11-23T09:43:07.973Z,11.18
2022-11-23T09:45:40.600Z,9.90
2022-11-23T09:48:33.474Z,9.57
2022-11-23T09:51:05.413Z,9.27
2022-11-23T09:53:40.607Z,7.68
2022-11-23T09:56:17.937Z,11.07
2022-11-23T09:58:46.354Z,11.07
2022-11-23T10:01:16.827Z,15.23
2022-11-23T10:03:49.082Z,15.18
2022-11-23T10:06:24.048Z,11.07
2022-11-23T10:09:13.524Z,11.23
2022-11-23T10:14:47.544Z,6.78
2022-11-23T10:17:26.473Z,9.35
2022-11-23T10:20:04.406Z,8.35
2022-11-23T10:22:36.875Z,16.67
2022-11-23T10:25:17.283Z,11.50
2022-11-23T10:27:48.853Z,6.38
2022-11-23T10:30:18.915Z,14.30
2022-11-23T10:32:50.872Z,10.85
2022-11-23T10:35:24.227Z,9.13
2022-11-23T10:37:53.909Z,18.05
2022-11-23T10:40:26.963Z,19.50
2022-11-23T10:42:59.289Z,12.57
2022-11-23T10:45:29.848Z,11.10
2022-11-23T10:47:59.852Z,9.70
2022-11-23T10:50:30.280Z,15.13
2022-11-23T10:53:01.717Z,14.07
2022-11-23T10:55:33.590Z,8.93
2022-11-23T10:58:02.393Z,7.90
2022-11-23T11:00:31.655Z,7.40
2022-11-23T11:03:02.361Z,7.35
2022-11-23T11:08:25.985Z,15.93
2022-11-23T11:11:02.478Z,12.95
2022-11-23T11:13:32.919Z,10.77
2022-11-23T11:16:03.034Z,10.60
2022-11-23T11:18:33.740Z,12.65
2022-11-23T11:21:05.220Z,17.35
2022-11-23T11:23:36.032Z,19.63
2022-11-23T11:26:15.233Z,11.95
2022-11-23T11:28:44.966Z,12.23
2022-11-23T11:31:48.436Z,11.20
2022-11-23T11:34:22.553Z,7.93
2022-11-23T11:36:58.529Z,9.13
2022-11-23T11:39:31.735Z,6.97
2022-11-23T11:42:06.672Z,7.63
2022-11-23T11:44:39.549Z,7.78
2022-11-23T11:47:17.072Z,8.60
2022-11-23T11:49:49.803Z,7.55
2022-11-23T11:52:22.239Z,5.90
2022-11-23T11:54:56.945Z,10.65
2022-11-23T11:57:33.701Z,11.75
2022-11-23T12:00:06.478Z,11.88
2022-11-23T12:02:38.312Z,11.07
2022-11-23T12:05:15.241Z,8.80
2022-11-23T12:07:54.294Z,8.85
2022-11-23T12:10:27.169Z,7.55
2022-11-23T12:12:57.539Z,8.10
2022-11-23T12:15:49.914Z,9.70
2022-11-23T12:18:42.085Z,7.25
2022-11-23T12:21:29.702Z,8.07
2022-11-23T12:24:08.303Z,8.85
2022-11-23T12:26:47.294Z,8.17
2022-11-23T12:29:31.769Z,8.43
2022-11-23T12:32:09.485Z,8.75
2022-11-23T12:35:03.078Z,7.72
2022-11-23T12:37:41.807Z,8.25
2022-11-23T12:40:29.517Z,9.43
2022-11-23T12:43:03.022Z,7.30
2022-11-23T12:45:47.451Z,7.43
2022-11-23T12:48:29.180Z,7.43
2022-11-23T12:51:07.088Z,8.63
2022-11-23T12:53:47.285Z,8.73
2022-11-23T12:56:26.023Z,9.88
2022-11-23T12:58:55.288Z,7.90
2022-11-23T13:01:31.515Z,9.82
2022-11-23T13:04:42.381Z,9.40
2022-11-23T13:07:50.979Z,8.10
2022-11-23T13:10:29.500Z,7.63
2022-11-23T13:13:27.564Z,10.45
2022-11-23T13:16:14.921Z,7.88
2022-11-23T13:19:02.991Z,10.20
2022-11-23T13:24:04.872Z,12.27
2022-11-23T13:26:32.924Z,9.65
2022-11-23T13:29:01.843Z,9.38
2022-11-23T13:31:32.111Z,11.13
2022-11-23T13:34:03.674Z,11.18
2022-11-23T13:40:03.847Z,11.68
2022-11-23T13:42:34.987Z,11.18
2022-11-23T13:45:27.462Z,11.93
2022-11-23T13:48:54.999Z,15.63
2022-11-23T13:51:10.833Z,17.13
2022-11-23T13:53:41.832Z,15.13
2022-11-23T13:56:26.842Z,16.20
2022-11-23T13:58:56.667Z,15.43
2022-11-23T14:02:03.096Z,17.27
2022-11-23T14:04:33.019Z,16.90
2022-11-23T14:07:06.884Z,20.77
2022-11-23T14:09:40.231Z,18.58
2022-11-23T14:12:19.789Z,17.80
2022-11-23T14:14:59.558Z,19.55
2022-11-23T14:18:00.479Z,18.10
2022-11-23T14:20:48.854Z,13.60
2022-11-23T14:23:47.665Z,15.05
2022-11-23T14:26:29.366Z,13.55
2022-11-23T14:29:18.279Z,16.23
2022-11-23T14:31:58.619Z,11.20
2022-11-23T14:34:35.831Z,15.35
2022-11-23T14:37:12.157Z,13.77
2022-11-23T14:40:04.376Z,15.82
2022-11-23T14:42:38.660Z,14.02
2022-11-23T14:45:07.910Z,16.88
2022-11-23T14:47:36.402Z,16.75
2022-11-23T14:50:04.689Z,22.50
2022-11-23T14:52:35.976Z,19.10
2022-11-23T14:55:07.505Z,21.58
2022-11-23T14:57:41.769Z,19.70
2022-11-23T15:00:26.080Z,22.52
2022-11-23T15:02:55.219Z,20.02
2022-11-23T15:05:27.935Z,23.88
2022-11-23T15:08:00.036Z,29.70
2022-11-23T15:10:53.266Z,32.25
2022-11-23T15:13:23.375Z,32.50
2022-11-23T15:15:53.538Z,31.88
2022-11-23T15:18:33.013Z,22.23
2022-11-23T15:23:36.687Z,18.23
2022-11-23T15:26:28.587Z,23.70
2022-11-23T15:29:02.210Z,30.17
2022-11-23T15:31:33.793Z,23.02
2022-11-23T15:34:15.986Z,28.20
2022-11-23T15:36:45.116Z,33.80
2022-11-23T15:39:18.657Z,47.17
2022-11-23T15:41:48.275Z,44.95
2022-11-23T15:46:49.153Z,38.20
2022-11-23T15:49:18.903Z,47.83
2022-11-23T15:51:47.497Z,44.85
2022-11-23T15:54:19.930Z,32.53
2022-11-23T15:56:52.524Z,45.08
2022-11-23T15:59:32.763Z,47.13
2022-11-23T16:02:03.167Z,50.78
2022-11-23T16:04:33.717Z,49.17
2022-11-23T16:07:16.822Z,51.97
2022-11-23T16:09:52.815Z,45.85
2022-11-23T16:12:27.857Z,54.72
2022-11-23T16:14:57.666Z,54.47
2022-11-23T16:17:27.079Z,50.80
2022-11-23T16:19:56.723Z,51.78
2022-11-23T16:25:02.110Z,51.03
2022-11-23T16:27:31.761Z,56.55
2022-11-23T16:30:03.451Z,52.13
2022-11-23T16:32:33.061Z,55.00
2022-11-23T16:35:15.518Z,60.95
2022-11-23T16:37:44.220Z,60.17
2022-11-23T16:40:13.726Z,48.10
2022-11-23T16:42:43.227Z,68.13
2022-11-23T16:47:52.676Z,62.58
2022-11-23T16:50:20.797Z,62.92
2022-11-23T16:52:49.025Z,63.67
2022-11-23T16:55:17.421Z,53.95
2022-11-23T16:57:48.541Z,56.15
2022-11-23T17:00:18.345Z,59.95
2022-11-23T17:02:46.667Z,46.63
2022-11-23T17:05:16.337Z,47.47
2022-11-23T17:10:14.224Z,65.78
2022-11-23T17:12:49.226Z,60.60
2022-11-23T17:15:18.595Z,57.85
2022-11-23T17:17:46.650Z,54.03
2022-11-23T17:20:15.835Z,48.42
2022-11-23T17:22:44.044Z,42.67
2022-11-23T17:25:15.257Z,42.15
2022-11-23T17:27:46.043Z,44.80
2022-11-23T17:30:17.910Z,44.65
2022-11-23T17:32:47.961Z,38.60
2022-11-23T17:35:16.586Z,40.08
2022-11-23T17:37:45.009Z,44.83
2022-11-23T17:40:16.225Z,43.25
2022-11-23T17:42:44.636Z,54.05
2022-11-23T17:45:13.480Z,59.20
2022-11-23T17:47:44.709Z,51.95
2022-11-23T17:50:17.441Z,60.58
2022-11-23T17:52:45.518Z,60.47
2022-11-23T17:55:14.945Z,65.22
2022-11-23T17:57:43.190Z,70.90
2022-11-23T18:00:18.832Z,79.40
2022-11-23T18:02:48.548Z,74.22
2022-11-23T18:05:21.450Z,65.18
2022-11-23T18:07:50.260Z,57.17
2022-11-23T18:10:18.601Z,42.05
2022-11-23T18:12:47.527Z,46.08
2022-11-23T18:15:16.045Z,41.78
2022-11-23T18:17:44.150Z,45.63
2022-11-23T18:20:14.079Z,44.75
2022-11-23T18:22:42.283Z,51.22
2022-11-23T18:25:11.516Z,50.08
2022-11-23T18:27:39.683Z,51.92
2022-11-23T18:30:09.325Z,50.20
2022-11-23T18:35:06.936Z,53.85
2022-11-23T18:37:36.356Z,49.70
2022-11-23T18:40:04.774Z,69.05
2022-11-23T18:42:32.980Z,57.45
2022-11-23T18:45:01.578Z,51.63
2022-11-23T18:47:29.665Z,46.72
2022-11-23T18:50:03.309Z,48.90
2022-11-23T18:52:34.239Z,44.15
2022-11-23T18:55:03.758Z,45.70
2022-11-23T19:00:00.588Z,53.47
2022-11-23T19:04:57.233Z,50.67
2022-11-23T19:07:27.455Z,44.78
2022-11-23T19:09:56.218Z,49.35
2022-11-23T19:12:25.659Z,51.60
2022-11-23T19:14:53.801Z,51.00
2022-11-23T19:17:21.872Z,58.20
2022-11-23T19:19:50.377Z,66.57
2022-11-23T19:22:18.463Z,65.53
2022-11-23T19:24:46.609Z,77.80
2022-11-23T19:27:14.698Z,69.45
2022-11-23T19:29:44.357Z,68.53
2022-11-23T19:32:13.728Z,80.40
2022-11-23T19:34:41.820Z,81.20
2022-11-23T19:37:09.890Z,79.18
2022-11-23T19:39:38.487Z,72.30
2022-11-23T19:42:06.792Z,61.87
2022-11-23T19:44:34.837Z,70.25
2022-11-23T19:47:08.528Z,76.63
2022-11-23T19:49:40.288Z,83.38
2022-11-23T19:52:08.514Z,97.13
2022-11-23T19:54:36.610Z,84.32
2022-11-23T19:57:04.785Z,92.97
2022-11-23T19:59:33.484Z,80.80
2022-11-23T20:02:04.222Z,83.90
2022-11-23T20:04:32.683Z,71.90
2022-11-23T20:07:00.839Z,72.65
2022-11-23T20:09:29.232Z,89.95
2022-11-23T20:11:57.627Z,86.85
2022-11-23T20:14:25.685Z,79.47
2022-11-23T20:16:53.845Z,75.43
2022-11-23T20:19:23.355Z,60.50
2022-11-23T20:24:19.505Z,53.45
2022-11-23T20:26:47.604Z,62.08
2022-11-23T20:29:15.811Z,54.05
2022-11-23T20:31:44.060Z,52.58
2022-11-23T20:34:16.710Z,48.05
2022-11-23T20:36:49.481Z,52.13
2022-11-23T20:41:49.407Z,46.50
2022-11-23T20:44:17.879Z,41.08
2022-11-23T20:47:01.109Z,46.78
2022-11-23T20:49:31.045Z,49.83
2022-11-23T20:52:01.822Z,59.97
2022-11-23T20:54:30.039Z,61.35
2022-11-23T20:57:00.230Z,71.07
2022-11-23T20:59:28.989Z,64.38
2022-11-23T21:01:57.174Z,68.80
2022-11-23T21:04:25.405Z,69.90
2022-11-23T21:06:53.478Z,70.60
2022-11-23T21:09:23.151Z,67.07
2022-11-23T21:12:08.566Z,60.55
2022-11-23T21:14:37.098Z,49.90
2022-11-23T21:17:05.745Z,39.47
2022-11-23T21:19:35.572Z,47.00
2022-11-23T21:22:05.887Z,44.72
2022-11-23T21:24:36.277Z,43.42
2022-11-23T21:27:05.129Z,42.28
2022-11-23T21:29:33.681Z,47.17
2022-11-23T21:32:02.444Z,34.35
2022-11-23T21:34:31.723Z,46.65
2022-11-23T21:37:00.410Z,45.35
2022-11-23T21:39:30.857Z,43.75
2022-11-23T21:42:00.633Z,44.92
2022-11-23T21:44:28.773Z,41.78
2022-11-23T21:46:57.206Z,38.83
2022-11-23T21:49:27.780Z,34.47
2022-11-23T21:51:56.057Z,34.05
2022-11-23T21:54:24.248Z,34.03
2022-11-23T21:56:52.288Z,30.27
2022-11-23T21:59:23.346Z,30.90
2022-11-23T22:01:51.473Z,30.13
2022-11-23T22:04:19.562Z,27.95
2022-11-23T22:06:47.581Z,24.48
2022-11-23T22:09:16.920Z,25.70
2022-11-23T22:11:45.714Z,25.98
2022-11-23T22:14:15.418Z,26.48
2022-11-23T22:16:46.861Z,28.25
2022-11-23T22:19:16.452Z,24.88
2022-11-23T22:21:45.948Z,27.60
2022-11-23T22:26:43.389Z,29.38
2022-11-23T22:29:12.433Z,22.00
2022-11-23T22:31:40.639Z,25.15
2022-11-23T22:34:13.952Z,24.85
2022-11-23T22:36:42.377Z,26.40
2022-11-23T22:39:11.193Z,28.92
2022-11-23T22:41:39.289Z,20.60
2022-11-23T22:44:09.639Z,24.58
2022-11-23T22:46:38.937Z,21.75
2022-11-23T22:49:07.326Z,23.83
2022-11-23T22:51:36.755Z,20.95
2022-11-23T22:54:05.488Z,22.38
2022-11-23T22:56:33.691Z,20.80
2022-11-23T22:59:01.893Z,20.80
2022-11-23T23:01:31.371Z,20.63
2022-11-23T23:04:01.274Z,21.77
2022-11-23T23:06:33.475Z,21.05
2022-11-23T23:09:03.909Z,21.15
2022-11-23T23:11:33.582Z,21.85
2022-11-23T23:14:02.057Z,26.05
2022-11-23T23:16:30.407Z,26.10
2022-11-23T23:18:59.384Z,21.80
2022-11-23T23:21:29.434Z,18.42
2022-11-23T23:23:59.733Z,24.55
2022-11-23T23:26:30.244Z,25.95
2022-11-23T23:29:00.408Z,23.63
2022-11-23T23:31:29.821Z,28.13
2022-11-23T23:36:26.264Z,29.38
2022-11-23T23:38:54.295Z,26.60
2022-11-23T23:41:22.514Z,24.65
2022-11-23T23:43:51.954Z,23.73
2022-11-23T23:46:20.213Z,24.08
2022-11-23T23:48:48.469Z,22.90
2022-11-23T23:51:18.352Z,29.30
2022-11-23T23:53:47.006Z,24.38
2022-11-23T23:56:16.924Z,24.30
2022-11-23T23:58:45.625Z,23.38
